Positano Jet — IFTU — position and weather

sailwx.info

Track history (hours):
 
Tides and Currents Weather Stations Pressure Air Temp Water Temp Dewpoint Dewpoint Depression Visibility Wind Speed Wind Dir Waves Ship Positions

Positano Jet

Last reported at 2014-Jul-21 17:29 UTC. Time now 2014-Jul-22 07:23 UTC.
Position N 40°36' E 014°26'.

Length 23 m; draft 2 m.

Type: Ship. MMSI: 247160800.

Date/timePositionNaut miles runAvg speedWind from/ knotsBaromVisibWave heightAir tempDewpointWater temp
2014-Jul-21 17:29N 40°36' E 014°26'6 6.7
2014-Jul-21 16:33N 40°34' E 014°18'9 6.3
2014-Jul-21 15:07N 40°37' E 014°29'0 0.0
2014-Jul-21 14:32N 40°37' E 014°29'7 7.0
2014-Jul-21 13:33N 40°34' E 014°21'4 4.0
2014-Jul-21 12:33N 40°34' E 014°16'1110.3
2014-Jul-21 11:31N 40°37' E 014°29'8 6.0
2014-Jul-21 10:15N 40°34' E 014°20'4 6.3
2014-Jul-21 09:33N 40°33' E 014°14'1110.9
2014-Jul-21 08:33N 40°37' E 014°28'1 1.1
2014-Jul-21 07:27N 40°37' E 014°29'1 0.1
2014-Jul-20 17:33N 40°37' E 014°28'7 7.3
2014-Jul-20 16:33N 40°34' E 014°19'9 4.2
2014-Jul-20 14:29N 40°38' E 014°29'6 6.2
2014-Jul-20 13:32N 40°35' E 014°23'6 6.3
2014-Jul-20 12:34N 40°34' E 014°15'12 8.8
2014-Jul-20 11:14N 40°38' E 014°29'2 3.1
2014-Jul-20 10:32N 40°36' E 014°27'1010.0
2014-Jul-20 09:31N 40°33' E 014°14'11 0.7
2014-Jul-19 17:33N 40°37' E 014°28'8 8.1
2014-Jul-19 16:34N 40°34' E 014°19'9 6.4
2014-Jul-19 15:08N 40°38' E 014°30'7 4.0
2014-Jul-19 13:31N 40°35' E 014°22'5 4.8
2014-Jul-19 12:34N 40°34' E 014°16'5 2.2
2014-Jul-19 10:21N 40°35' E 014°22'6 7.8
2014-Jul-19 09:33N 40°33' E 014°14'1211.6
2014-Jul-19 08:33N 40°37' E 014°29'1 0.1
2014-Jul-18 17:30N 40°37' E 014°27'7 7.3
2014-Jul-18 16:33N 40°34' E 014°19'9 8.6
2014-Jul-18 15:32N 40°37' E 014°29'0 0.0
2014-Jul-18 14:33N 40°37' E 014°29'4 4.5
2014-Jul-18 13:33N 40°36' E 014°24'7 6.9
2014-Jul-18 12:34N 40°34' E 014°15'1110.9
2014-Jul-18 11:31N 40°38' E 014°29'3 3.2
2014-Jul-18 10:28N 40°36' E 014°25'9 9.4
2014-Jul-18 09:32N 40°33' E 014°14'12 8.2
2014-Jul-18 08:04N 40°37' E 014°29'1 0.0
2014-Jul-17 17:33N 40°37' E 014°29'7 6.9
2014-Jul-17 16:32N 40°34' E 014°20'8 7.8
2014-Jul-17 15:31N 40°38' E 014°30'0 0.0
2014-Jul-17 14:33N 40°38' E 014°30'7 6.1
2014-Jul-17 13:29N 40°35' E 014°22'5 5.4
2014-Jul-17 12:33N 40°34' E 014°15'6 2.7
2014-Jul-17 10:22N 40°34' E 014°23'7 8.1
2014-Jul-17 09:33N 40°33' E 014°14'1111.3
2014-Jul-17 08:32N 40°37' E 014°29'2 0.2
2014-Jul-16 17:28N 40°36' E 014°26'5 5.2
2014-Jul-16 16:33N 40°34' E 014°20'2 0.6
2014-Jul-16 13:33N 40°35' E 014°22'6 5.7
2014-Jul-16 12:33N 40°34' E 014°15'8 4.0
2014-Jul-16 10:28N 40°36' E 014°26'9 9.5
2014-Jul-16 09:33N 40°33' E 014°14'12 8.9
2014-Jul-16 08:12N 40°37' E 014°29'3 0.2
2014-Jul-15 17:28N 40°36' E 014°25'4 4.7
2014-Jul-15 16:33N 40°34' E 014°20'8 7.6
2014-Jul-15 15:33N 40°37' E 014°29'0 0.0
2014-Jul-15 14:30N 40°37' E 014°29'6 6.0
2014-Jul-15 13:29N 40°35' E 014°22'5 5.0
2014-Jul-15 12:33N 40°34' E 014°16'4 1.9
2014-Jul-15 10:20N 40°35' E 014°21'6 7.1
2014-Jul-15 09:34N 40°33' E 014°14'1210.4
2014-Jul-15 08:25N 40°37' E 014°29'0 0.0
2014-Jul-15 06:32N 40°37' E 014°29'8 0.6
2014-Jul-14 17:15N 40°34' E 014°19'2 2.8
2014-Jul-14 16:29N 40°35' E 014°22'6 5.7
2014-Jul-14 15:23N 40°37' E 014°29'6 3.2
2014-Jul-14 13:32N 40°35' E 014°22'5 5.6
2014-Jul-14 12:33N 40°34' E 014°15'5 2.4
2014-Jul-14 10:19N 40°35' E 014°22'6 7.8
2014-Jul-14 09:34N 40°33' E 014°14'1110.6
2014-Jul-14 08:32N 40°37' E 014°28'2 0.1
2014-Jul-13 17:28N 40°36' E 014°26'3 3.3
2014-Jul-13 16:27N 40°35' E 014°22'6 3.2
2014-Jul-13 14:33N 40°37' E 014°29'6 5.8
2014-Jul-13 13:30N 40°35' E 014°22'5 5.5
2014-Jul-13 12:33N 40°34' E 014°15'1110.7
2014-Jul-13 11:31N 40°38' E 014°29'1 1.0
2014-Jul-13 10:33N 40°37' E 014°28'1111.1
2014-Jul-13 09:34N 40°33' E 014°14'1211.7
2014-Jul-13 08:34N 40°37' E 014°29'1 0.1
2014-Jul-12 17:33N 40°37' E 014°28'5 4.6
2014-Jul-12 16:28N 40°35' E 014°22'6 5.6
2014-Jul-12 15:21N 40°37' E 014°29'6 3.2
2014-Jul-12 13:31N 40°35' E 014°22'5 5.7
2014-Jul-12 12:34N 40°34' E 014°15'1110.7
2014-Jul-12 11:31N 40°38' E 014°29'6 5.3
2014-Jul-12 10:24N 40°35' E 014°22'6 7.3
2014-Jul-12 09:33N 40°33' E 014°14'  
Track history (hours):
 
Tides and Currents Weather Stations Pressure Air Temp Water Temp Dewpoint Dewpoint Depression Visibility Wind Speed Wind Dir Waves Ship Positions

Positano Jet

Last reported at 2014-Jul-21 17:29 UTC. Time now 2014-Jul-22 07:23 UTC.
Position N 40°36' E 014°26'.

Length 23 m; draft 2 m.

Type: Ship. MMSI: 247160800.

Date/timePositionNaut miles runAvg speedWind from/ knotsBaromVisibWave heightAir tempDewpointWater temp
2014-Jul-21 17:29N 40°36' E 014°26'6 6.7
2014-Jul-21 16:33N 40°34' E 014°18'9 6.3
2014-Jul-21 15:07N 40°37' E 014°29'0 0.0
2014-Jul-21 14:32N 40°37' E 014°29'7 7.0
2014-Jul-21 13:33N 40°34' E 014°21'4 4.0
2014-Jul-21 12:33N 40°34' E 014°16'1110.3
2014-Jul-21 11:31N 40°37' E 014°29'8 6.0
2014-Jul-21 10:15N 40°34' E 014°20'4 6.3
2014-Jul-21 09:33N 40°33' E 014°14'1110.9
2014-Jul-21 08:33N 40°37' E 014°28'1 1.1
2014-Jul-21 07:27N 40°37' E 014°29'1 0.1
2014-Jul-20 17:33N 40°37' E 014°28'7 7.3
2014-Jul-20 16:33N 40°34' E 014°19'9 4.2
2014-Jul-20 14:29N 40°38' E 014°29'6 6.2
2014-Jul-20 13:32N 40°35' E 014°23'6 6.3
2014-Jul-20 12:34N 40°34' E 014°15'12 8.8
2014-Jul-20 11:14N 40°38' E 014°29'2 3.1
2014-Jul-20 10:32N 40°36' E 014°27'1010.0
2014-Jul-20 09:31N 40°33' E 014°14'11 0.7
2014-Jul-19 17:33N 40°37' E 014°28'8 8.1
2014-Jul-19 16:34N 40°34' E 014°19'9 6.4
2014-Jul-19 15:08N 40°38' E 014°30'7 4.0
2014-Jul-19 13:31N 40°35' E 014°22'5 4.8
2014-Jul-19 12:34N 40°34' E 014°16'5 2.2
2014-Jul-19 10:21N 40°35' E 014°22'6 7.8
2014-Jul-19 09:33N 40°33' E 014°14'1211.6
2014-Jul-19 08:33N 40°37' E 014°29'1 0.1
2014-Jul-18 17:30N 40°37' E 014°27'7 7.3
2014-Jul-18 16:33N 40°34' E 014°19'9 8.6
2014-Jul-18 15:32N 40°37' E 014°29'0 0.0
2014-Jul-18 14:33N 40°37' E 014°29'4 4.5
2014-Jul-18 13:33N 40°36' E 014°24'7 6.9
2014-Jul-18 12:34N 40°34' E 014°15'1110.9
2014-Jul-18 11:31N 40°38' E 014°29'3 3.2
2014-Jul-18 10:28N 40°36' E 014°25'9 9.4
2014-Jul-18 09:32N 40°33' E 014°14'12 8.2
2014-Jul-18 08:04N 40°37' E 014°29'1 0.0
2014-Jul-17 17:33N 40°37' E 014°29'7 6.9
2014-Jul-17 16:32N 40°34' E 014°20'8 7.8
2014-Jul-17 15:31N 40°38' E 014°30'0 0.0
2014-Jul-17 14:33N 40°38' E 014°30'7 6.1
2014-Jul-17 13:29N 40°35' E 014°22'5 5.4
2014-Jul-17 12:33N 40°34' E 014°15'6 2.7
2014-Jul-17 10:22N 40°34' E 014°23'7 8.1
2014-Jul-17 09:33N 40°33' E 014°14'1111.3
2014-Jul-17 08:32N 40°37' E 014°29'2 0.2
2014-Jul-16 17:28N 40°36' E 014°26'5 5.2
2014-Jul-16 16:33N 40°34' E 014°20'2 0.6
2014-Jul-16 13:33N 40°35' E 014°22'6 5.7
2014-Jul-16 12:33N 40°34' E 014°15'8 4.0
2014-Jul-16 10:28N 40°36' E 014°26'9 9.5
2014-Jul-16 09:33N 40°33' E 014°14'12 8.9
2014-Jul-16 08:12N 40°37' E 014°29'3 0.2
2014-Jul-15 17:28N 40°36' E 014°25'4 4.7
2014-Jul-15 16:33N 40°34' E 014°20'8 7.6
2014-Jul-15 15:33N 40°37' E 014°29'0 0.0
2014-Jul-15 14:30N 40°37' E 014°29'6 6.0
2014-Jul-15 13:29N 40°35' E 014°22'5 5.0
2014-Jul-15 12:33N 40°34' E 014°16'4 1.9
2014-Jul-15 10:20N 40°35' E 014°21'6 7.1
2014-Jul-15 09:34N 40°33' E 014°14'1210.4
2014-Jul-15 08:25N 40°37' E 014°29'0 0.0
2014-Jul-15 06:32N 40°37' E 014°29'8 0.6
2014-Jul-14 17:15N 40°34' E 014°19'2 2.8
2014-Jul-14 16:29N 40°35' E 014°22'6 5.7
2014-Jul-14 15:23N 40°37' E 014°29'6 3.2
2014-Jul-14 13:32N 40°35' E 014°22'5 5.6
2014-Jul-14 12:33N 40°34' E 014°15'5 2.4
2014-Jul-14 10:19N 40°35' E 014°22'6 7.8
2014-Jul-14 09:34N 40°33' E 014°14'1110.6
2014-Jul-14 08:32N 40°37' E 014°28'2 0.1
2014-Jul-13 17:28N 40°36' E 014°26'3 3.3
2014-Jul-13 16:27N 40°35' E 014°22'6 3.2
2014-Jul-13 14:33N 40°37' E 014°29'6 5.8
2014-Jul-13 13:30N 40°35' E 014°22'5 5.5
2014-Jul-13 12:33N 40°34' E 014°15'1110.7
2014-Jul-13 11:31N 40°38' E 014°29'1 1.0
2014-Jul-13 10:33N 40°37' E 014°28'1111.1
2014-Jul-13 09:34N 40°33' E 014°14'1211.7
2014-Jul-13 08:34N 40°37' E 014°29'1 0.1
2014-Jul-12 17:33N 40°37' E 014°28'5 4.6
2014-Jul-12 16:28N 40°35' E 014°22'6 5.6
2014-Jul-12 15:21N 40°37' E 014°29'6 3.2
2014-Jul-12 13:31N 40°35' E 014°22'5 5.7
2014-Jul-12 12:34N 40°34' E 014°15'1110.7
2014-Jul-12 11:31N 40°38' E 014°29'6 5.3
2014-Jul-12 10:24N 40°35' E 014°22'6 7.3
2014-Jul-12 09:33N 40°33' E 014°14'  

Dump ship's entire track history